Time;durP1;ratioP1;P1;durP2;ratioP2;P2;SDS_P1;SDS_P2;PMS_P1;PMS_P2;Temp;Humidity;BMP_temperature;BMP_pressure;BME280_temperature;BME280_humidity;BME280_pressure;Samples;Min_cycle;Max_cycle;Signal;HPM_P1;HPM_P2
2022/04/13 00:01:47;;;;;;;4.78;1.60;;;;;;;;;;4990582;28;20037;-82
2022/04/13 00:04:15;;;;;;;2.22;1.13;;;;;;;;;;4991091;28;20026;-82
2022/04/13 00:06:41;;;;;;;4.63;1.40;;;;;;;;;;4987120;28;20047;-81
2022/04/13 00:09:09;;;;;;;2.30;1.23;;;;;;;;;;4991414;28;20041;-81
2022/04/13 00:11:35;;;;;;;2.65;1.15;;;;;;;;;;4995215;28;20494;-81
2022/04/13 00:14:01;;;;;;;4.00;1.58;;;;;;;;;;4992166;28;20042;-81
2022/04/13 00:16:28;;;;;;;3.50;1.10;;;;;;;;;;4989590;28;20065;-80
2022/04/13 00:18:54;;;;;;;3.47;1.65;;;;;;;;;;4987267;28;20037;-81
2022/04/13 00:21:20;;;;;;;2.35;1.60;;;;;;;;;;4990294;28;20022;-81
2022/04/13 00:23:46;;;;;;;3.97;1.40;;;;;;;;;;4989515;28;20037;-82
2022/04/13 00:26:12;;;;;;;3.60;1.52;;;;;;;;;;4986811;28;20034;-82
2022/04/13 00:28:38;;;;;;;4.63;1.77;;;;;;;;;;4990976;28;20045;-83
2022/04/13 00:31:05;;;;;;;1.98;0.98;;;;;;;;;;4991847;28;20085;-81
2022/04/13 00:33:32;;;;;;;3.03;1.30;;;;;;;;;;4993441;28;20046;-81
2022/04/13 00:35:58;;;;;;;3.38;1.38;;;;;;;;;;4997246;28;20117;-82
2022/04/13 00:38:24;;;;;;;2.78;1.25;;;;;;;;;;4989442;28;20546;-81
2022/04/13 00:40:50;;;;;;;1.67;1.00;;;;;;;;;;4988230;28;20121;-83
2022/04/13 00:43:16;;;;;;;2.83;1.38;;;;;;;;;;4990092;28;20478;-81
2022/04/13 00:45:45;;;;;;;5.60;1.27;;;;;;;;;;4994429;28;20041;-80
2022/04/13 00:48:18;;;;;;;1.95;1.05;;;;;;;;;;4989011;28;20046;-82
2022/04/13 00:50:44;;;;;;;3.63;1.00;;;;;;;;;;4996067;28;20048;-81
2022/04/13 00:53:11;;;;;;;3.05;1.35;;;;;;;;;;4989176;28;20125;-82
2022/04/13 00:55:40;;;;;;;2.28;1.23;;;;;;;;;;4991352;28;20509;-81
2022/04/13 00:58:07;;;;;;;3.80;1.15;;;;;;;;;;4994950;28;20413;-82
2022/04/13 01:00:38;;;;;;;1.80;1.10;;;;;;;;;;4987935;28;20030;-82
2022/04/13 01:03:07;;;;;;;3.88;1.42;;;;;;;;;;4987482;28;20377;-81
2022/04/13 01:05:34;;;;;;;2.50;1.20;;;;;;;;;;4993734;28;20034;-82
2022/04/13 01:08:01;;;;;;;3.28;1.40;;;;;;;;;;4992864;28;20030;-82
2022/04/13 01:10:27;;;;;;;4.82;1.58;;;;;;;;;;4993432;28;20039;-81
2022/04/13 01:12:53;;;;;;;3.33;1.17;;;;;;;;;;4991809;28;20034;-81
2022/04/13 01:15:19;;;;;;;4.18;1.90;;;;;;;;;;4989314;28;20446;-83
2022/04/13 01:17:46;;;;;;;2.53;1.15;;;;;;;;;;4983748;28;20069;-81
2022/04/13 01:20:12;;;;;;;3.13;1.02;;;;;;;;;;4994270;28;20105;-81
2022/04/13 01:22:38;;;;;;;4.28;1.98;;;;;;;;;;4991184;28;20094;-82
2022/04/13 01:25:04;;;;;;;3.15;1.13;;;;;;;;;;4990289;28;20046;-80
2022/04/13 01:27:30;;;;;;;2.50;1.67;;;;;;;;;;4990083;28;20034;-82
2022/04/13 01:29:56;;;;;;;3.25;1.55;;;;;;;;;;4991498;28;20506;-81
2022/04/13 01:32:22;;;;;;;2.72;0.95;;;;;;;;;;4986327;28;20041;-82
2022/04/13 01:34:52;;;;;;;1.63;0.93;;;;;;;;;;4986829;28;20026;-82
2022/04/13 01:37:18;;;;;;;3.50;1.33;;;;;;;;;;4990271;28;20346;-82
2022/04/13 01:39:44;;;;;;;3.20;1.23;;;;;;;;;;4993589;28;20717;-81
2022/04/13 01:42:10;;;;;;;2.80;1.42;;;;;;;;;;4991694;28;20113;-82
2022/04/13 01:44:36;;;;;;;5.55;1.65;;;;;;;;;;4992606;28;20026;-83
2022/04/13 01:47:02;;;;;;;2.72;1.30;;;;;;;;;;4996125;28;20049;-83
2022/04/13 01:49:28;;;;;;;1.52;0.77;;;;;;;;;;4990026;28;20057;-82
2022/04/13 01:51:54;;;;;;;2.05;1.38;;;;;;;;;;4993713;28;20030;-81
2022/04/13 01:54:20;;;;;;;1.83;1.10;;;;;;;;;;4992452;28;20035;-82
2022/04/13 01:56:46;;;;;;;2.80;1.05;;;;;;;;;;4993225;28;20027;-82
2022/04/13 01:59:12;;;;;;;3.83;1.75;;;;;;;;;;4994841;28;20033;-83
2022/04/13 02:01:43;;;;;;;4.47;1.35;;;;;;;;;;4992900;28;20779;-82
2022/04/13 02:04:35;;;;;;;2.42;1.15;;;;;;;;;;4986438;28;20030;-81
2022/04/13 02:07:01;;;;;;;2.55;1.17;;;;;;;;;;4985066;28;20047;-82
2022/04/13 02:09:27;;;;;;;4.03;2.13;;;;;;;;;;4985293;28;20026;-81
2022/04/13 02:11:53;;;;;;;1.60;1.02;;;;;;;;;;4991095;28;20057;-81
2022/04/13 02:14:19;;;;;;;4.03;1.67;;;;;;;;;;4985223;28;20042;-82
2022/04/13 02:16:46;;;;;;;4.88;1.20;;;;;;;;;;4987416;28;20273;-82
2022/04/13 02:19:12;;;;;;;2.15;1.25;;;;;;;;;;4990184;28;20037;-82
2022/04/13 02:21:39;;;;;;;2.10;1.30;;;;;;;;;;4989542;28;20026;-81
2022/04/13 02:24:06;;;;;;;1.88;1.10;;;;;;;;;;4985378;28;20050;-81
2022/04/13 02:26:32;;;;;;;2.72;1.15;;;;;;;;;;4993412;28;20070;-81
2022/04/13 02:28:58;;;;;;;2.67;1.50;;;;;;;;;;4985553;28;20951;-81
2022/04/13 02:31:24;;;;;;;2.88;1.52;;;;;;;;;;4984696;28;20031;-81
2022/04/13 02:33:54;;;;;;;1.55;1.08;;;;;;;;;;4987458;28;20038;-82
2022/04/13 02:36:20;;;;;;;2.05;1.20;;;;;;;;;;4990787;28;20418;-82
2022/04/13 02:38:46;;;;;;;2.47;1.17;;;;;;;;;;4986936;28;20520;-82
2022/04/13 02:41:12;;;;;;;1.80;1.08;;;;;;;;;;4994049;28;20042;-82
2022/04/13 02:43:39;;;;;;;4.72;1.65;;;;;;;;;;4987382;28;20034;-82
2022/04/13 02:46:05;;;;;;;5.97;1.23;;;;;;;;;;4989954;28;20073;-82
2022/04/13 02:48:31;;;;;;;4.32;1.77;;;;;;;;;;4990348;28;20062;-82
2022/04/13 02:50:57;;;;;;;4.25;1.23;;;;;;;;;;4995777;28;20037;-82
2022/04/13 02:53:26;;;;;;;2.22;1.15;;;;;;;;;;4991619;28;20034;-81
2022/04/13 02:55:52;;;;;;;2.97;1.48;;;;;;;;;;4987547;28;20038;-82
2022/04/13 02:58:18;;;;;;;3.60;1.48;;;;;;;;;;4990247;28;20030;-81
2022/04/13 03:00:44;;;;;;;2.80;1.23;;;;;;;;;;4988737;28;20037;-81
2022/04/13 03:03:10;;;;;;;3.75;1.95;;;;;;;;;;4989358;28;20104;-81
2022/04/13 03:05:37;;;;;;;4.07;1.67;;;;;;;;;;4986525;28;20034;-82
2022/04/13 03:08:03;;;;;;;3.42;1.27;;;;;;;;;;4987091;28;20034;-81
2022/04/13 03:10:29;;;;;;;1.83;1.25;;;;;;;;;;4987645;28;20486;-81
2022/04/13 03:12:55;;;;;;;1.63;0.88;;;;;;;;;;4990570;28;20023;-82
2022/04/13 03:15:23;;;;;;;3.63;1.50;;;;;;;;;;4987577;28;20507;-83
2022/04/13 03:17:49;;;;;;;2.38;1.33;;;;;;;;;;4992547;28;20437;-83
2022/04/13 03:20:15;;;;;;;2.85;1.23;;;;;;;;;;4992527;28;20087;-83
2022/04/13 03:22:41;;;;;;;4.53;1.27;;;;;;;;;;4988216;28;20042;-82
2022/04/13 03:25:07;;;;;;;3.22;1.50;;;;;;;;;;4985273;28;20058;-81
2022/04/13 03:27:33;;;;;;;2.42;1.45;;;;;;;;;;4996041;28;20045;-81
2022/04/13 03:29:59;;;;;;;2.03;1.15;;;;;;;;;;4994085;28;20041;-81
2022/04/13 03:32:25;;;;;;;12.60;1.52;;;;;;;;;;4992948;28;20034;-81
2022/04/13 03:34:51;;;;;;;6.72;2.17;;;;;;;;;;4991236;28;20026;-81
2022/04/13 03:37:17;;;;;;;4.30;1.27;;;;;;;;;;4993187;28;20085;-82
2022/04/13 03:39:43;;;;;;;4.43;2.92;;;;;;;;;;4995343;28;20058;-83
2022/04/13 03:42:09;;;;;;;4.75;1.75;;;;;;;;;;4992635;28;20026;-82
2022/04/13 03:44:35;;;;;;;2.67;1.33;;;;;;;;;;4986390;28;20027;-84
2022/04/13 03:47:01;;;;;;;2.97;1.38;;;;;;;;;;4993243;28;20053;-82
2022/04/13 03:49:27;;;;;;;3.10;1.77;;;;;;;;;;4998188;28;20022;-82
2022/04/13 03:51:53;;;;;;;2.40;1.00;;;;;;;;;;4992035;28;20034;-83
2022/04/13 03:54:19;;;;;;;4.05;1.08;;;;;;;;;;4991402;28;20196;-81
2022/04/13 03:56:45;;;;;;;2.63;1.00;;;;;;;;;;4993871;28;20026;-82
2022/04/13 03:59:11;;;;;;;2.80;1.58;;;;;;;;;;4991570;28;20038;-82
2022/04/13 04:01:37;;;;;;;4.63;1.27;;;;;;;;;;4989744;28;20034;-82
2022/04/13 04:04:03;;;;;;;2.58;0.93;;;;;;;;;;4987420;28;20022;-81
2022/04/13 04:06:29;;;;;;;2.75;1.70;;;;;;;;;;4984223;28;20126;-81
2022/04/13 04:08:55;;;;;;;2.42;1.33;;;;;;;;;;4983487;28;20050;-81
2022/04/13 04:11:21;;;;;;;6.97;1.80;;;;;;;;;;4991709;28;20027;-80
2022/04/13 04:13:47;;;;;;;4.75;1.05;;;;;;;;;;4990937;28;20038;-82
2022/04/13 04:16:13;;;;;;;3.22;1.15;;;;;;;;;;4992508;28;20681;-79
2022/04/13 04:18:39;;;;;;;4.50;1.17;;;;;;;;;;4993210;28;20026;-81
2022/04/13 04:21:05;;;;;;;1.95;1.23;;;;;;;;;;4989391;28;20561;-80
2022/04/13 04:23:31;;;;;;;3.65;1.40;;;;;;;;;;4991866;28;20520;-81
2022/04/13 04:25:57;;;;;;;2.10;1.05;;;;;;;;;;4990947;28;20113;-80
2022/04/13 04:28:23;;;;;;;2.35;1.35;;;;;;;;;;4994295;28;20049;-80
2022/04/13 04:30:48;;;;;;;3.05;1.30;;;;;;;;;;4995318;28;20402;-82
2022/04/13 04:33:16;;;;;;;2.53;1.00;;;;;;;;;;4999080;28;20039;-81
2022/04/13 04:35:46;;;;;;;1.95;1.10;;;;;;;;;;4999488;28;20032;-83
2022/04/13 04:38:12;;;;;;;1.92;1.15;;;;;;;;;;4990891;28;20030;-81
2022/04/13 04:40:38;;;;;;;4.65;1.38;;;;;;;;;;4984997;28;21341;-81
2022/04/13 04:43:04;;;;;;;1.95;1.60;;;;;;;;;;5001063;28;20053;-81
2022/04/13 04:45:30;;;;;;;2.42;1.05;;;;;;;;;;4985146;28;20030;-82
2022/04/13 04:47:57;;;;;;;1.95;1.27;;;;;;;;;;4989974;28;20034;-81
2022/04/13 04:50:24;;;;;;;3.25;1.77;;;;;;;;;;4991495;28;20148;-83
2022/04/13 04:52:50;;;;;;;1.92;1.13;;;;;;;;;;4990841;28;20133;-82
2022/04/13 04:55:17;;;;;;;2.55;1.17;;;;;;;;;;4996742;28;20033;-84
2022/04/13 04:57:43;;;;;;;2.65;1.40;;;;;;;;;;4992536;28;21975;-83
2022/04/13 05:00:11;;;;;;;2.83;1.27;;;;;;;;;;4995895;28;20034;-82
2022/04/13 05:02:37;;;;;;;5.15;1.48;;;;;;;;;;4997440;28;20025;-83
2022/04/13 05:05:04;;;;;;;3.15;1.33;;;;;;;;;;4999554;28;20085;-82
2022/04/13 05:07:30;;;;;;;1.40;0.68;;;;;;;;;;4988667;28;20469;-82
2022/04/13 05:09:56;;;;;;;2.35;1.13;;;7.80;99.90;;;;;;4995999;28;20030;-81
2022/04/13 05:12:22;;;;;;;5.03;2.40;;;;;;;;;;4993727;28;20037;-82
2022/04/13 05:14:48;;;;;;;5.22;2.00;;;;;;;;;;4998585;28;20061;-81
2022/04/13 05:17:15;;;;;;;4.43;2.75;;;;;;;;;;4991684;28;20058;-81
2022/04/13 05:19:40;;;;;;;3.83;1.55;;;;;;;;;;4999116;28;20025;-82
2022/04/13 05:22:06;;;;;;;3.80;2.17;;;;;;;;;;4997996;28;20042;-83
2022/04/13 05:24:32;;;;;;;3.35;1.65;;;;;;;;;;4985341;28;20038;-84
2022/04/13 05:26:58;;;;;;;4.75;1.70;;;;;;;;;;4988442;28;20053;-82
2022/04/13 05:29:24;;;;;;;2.63;1.67;;;;;;;;;;4984982;28;20120;-81
2022/04/13 05:31:50;;;;;;;5.07;2.35;;;;;;;;;;4986308;28;20035;-82
2022/04/13 05:34:16;;;;;;;9.02;4.18;;;;;;;;;;4987421;28;20028;-83
2022/04/13 05:36:42;;;;;;;9.63;3.95;;;;;;;;;;4986908;28;20161;-83
2022/04/13 05:39:08;;;;;;;15.15;2.88;;;;;;;;;;4989321;28;20496;-83
2022/04/13 05:41:35;;;;;;;4.70;1.63;;;;;;;;;;4983562;28;20112;-80
2022/04/13 05:44:01;;;;;;;2.47;1.58;;;;;;;;;;4989941;28;20019;-81
2022/04/13 05:46:27;;;;;;;3.22;1.55;;;;;;;;;;4984403;28;20033;-82
2022/04/13 05:48:53;;;;;;;3.38;1.73;;;;;;;;;;4977848;28;20553;-81
2022/04/13 05:51:19;;;;;;;2.47;1.25;;;;;;;;;;4981632;28;20026;-81
2022/04/13 05:53:45;;;;;;;3.05;1.45;;;;;;;;;;4986577;28;20137;-81
2022/04/13 05:56:13;;;;;;;2.78;1.50;;;;;;;;;;4991605;28;20045;-81
2022/04/13 05:58:39;;;;;;;13.98;2.95;;;;;;;;;;4983435;28;20250;-80
2022/04/13 06:01:05;;;;;;;11.13;3.08;;;;;;;;;;4983183;28;20470;-81
2022/04/13 06:03:32;;;;;;;4.10;2.05;;;;;;;;;;4985804;28;20033;-81
2022/04/13 06:05:58;;;;;;;4.10;1.55;;;;;;;;;;4987637;28;20034;-81
2022/04/13 06:08:24;;;;;;;2.88;1.10;;;;;;;;;;4988768;28;20058;-81
2022/04/13 06:10:50;;;;;;;2.90;1.45;;;;;;;;;;4986788;28;20030;-80
2022/04/13 06:13:16;;;;;;;1.98;1.33;;;;;;;;;;4992103;28;20061;-80
2022/04/13 06:15:44;;;;;;;2.75;1.48;;;;;;;;;;4983906;28;20108;-82
2022/04/13 06:18:10;;;;;;;2.78;1.23;;;;;;;;;;4991001;28;20124;-81
2022/04/13 06:20:36;;;;;;;2.00;0.90;;;;;;;;;;4985768;28;21729;-81
2022/04/13 06:23:02;;;;;;;2.25;1.15;;;;;;;;;;4991580;28;20157;-80
2022/04/13 06:25:28;;;;;;;5.50;1.55;;;;;;;;;;4986101;28;20479;-81
2022/04/13 06:27:54;;;;;;;2.70;1.05;;;;;;;;;;4979320;28;20129;-81
2022/04/13 06:30:20;;;;;;;2.97;1.60;;;;;;;;;;4982910;28;22000;-80
2022/04/13 06:32:46;;;;;;;3.15;1.30;;;;;;;;;;4989825;28;20169;-81
2022/04/13 06:35:14;;;;;;;5.88;1.38;;;;;;;;;;4985642;28;20022;-80
2022/04/13 06:37:40;;;;;;;3.05;1.58;;;;;;;;;;4985213;28;20572;-82
2022/04/13 06:40:07;;;;;;;2.90;1.25;;;;;;;;;;4988750;28;20035;-80
2022/04/13 06:42:34;;;;;;;2.67;1.15;;;;;;;;;;4983705;28;20093;-82
2022/04/13 06:45:00;;;;;;;5.25;1.70;;;10.90;99.90;;;;;;4989911;28;20156;-81
2022/04/13 06:47:26;;;;;;;3.72;1.20;;;;;;;;;;4991134;28;20099;-82
2022/04/13 06:49:52;;;;;;;6.72;1.98;;;;;;;;;;4993074;28;20094;-81
2022/04/13 06:52:18;;;;;;;8.48;1.98;;;;;;;;;;4984541;28;20169;-81
2022/04/13 06:54:44;;;;;;;4.00;1.60;;;;;;;;;;4989130;28;20074;-80
2022/04/13 06:57:10;;;;;;;5.45;2.03;;;;;;;;;;4982007;28;20139;-81
2022/04/13 06:59:36;;;;;;;2.97;1.42;;;12.10;99.90;;;;;;4990711;28;20038;-81
2022/04/13 07:02:02;;;;;;;6.72;1.60;;;;;;;;;;4994331;28;20030;-81
2022/04/13 07:04:28;;;;;;;4.25;1.73;;;;;;;;;;4987395;28;20034;-80
2022/04/13 07:06:54;;;;;;;5.28;1.77;;;;;;;;;;4985943;28;20046;-81
2022/04/13 07:09:20;;;;;;;2.72;1.30;;;;;;;;;;4988078;28;20030;-82
2022/04/13 07:11:46;;;;;;;3.83;1.55;;;;;;;;;;4991855;28;20064;-82
2022/04/13 07:14:12;;;;;;;2.88;1.33;;;;;;;;;;4991069;28;20122;-80
2022/04/13 07:16:38;;;;;;;4.05;2.10;;;;;;;;;;4983452;28;20030;-80
2022/04/13 07:19:04;;;;;;;2.03;1.08;;;;;;;;;;4989765;28;20030;-81
2022/04/13 07:21:30;;;;;;;2.70;1.48;;;;;;;;;;4994322;28;20030;-81
2022/04/13 07:23:57;;;;;;;1.90;0.90;;;;;;;;;;4993739;28;20026;-82
2022/04/13 07:26:23;;;;;;;4.82;1.30;;;;;;;;;;4996962;28;20624;-81
2022/04/13 07:28:49;;;;;;;2.90;1.45;;;;;;;;;;4994270;28;20030;-82
2022/04/13 07:31:15;;;;;;;2.75;1.65;;;;;;;;;;4991548;28;22890;-81
2022/04/13 07:33:41;;;;;;;6.85;1.30;;;;;;;;;;4990629;28;20486;-81
2022/04/13 07:36:07;;;;;;;7.40;1.60;;;;;;;;;;4993184;28;20130;-82
2022/04/13 07:38:33;;;;;;;2.97;1.20;;;;;;;;;;4991812;28;20127;-82
2022/04/13 07:41:01;;;;;;;2.92;1.20;;;;;;;;;;4996317;28;20274;-82
2022/04/13 07:43:27;;;;;;;6.57;1.52;;;;;;;;;;4996232;28;20030;-82
2022/04/13 07:45:53;;;;;;;6.00;1.70;;;;;;;;;;4988775;28;20053;-83
2022/04/13 07:48:19;;;;;;;2.53;1.15;;;;;;;;;;4986866;28;20379;-81
2022/04/13 07:50:47;;;;;;;6.75;1.30;;;;;;;;;;4994352;28;20786;-82
2022/04/13 07:53:13;;;;;;;3.10;1.48;;;;;;;;;;4995481;28;20034;-80
2022/04/13 07:55:39;;;;;;;4.50;2.28;;;;;;;;;;4991730;28;20473;-82
2022/04/13 07:58:06;;;;;;;4.40;1.35;;;;;;;;;;4987983;28;20061;-82
2022/04/13 08:00:32;;;;;;;4.22;1.42;;;;;;;;;;4989741;28;20077;-81
2022/04/13 08:02:58;;;;;;;7.82;2.10;;;;;;;;;;4990148;28;20394;-81
2022/04/13 08:05:24;;;;;;;6.13;2.13;;;;;;;;;;4986166;28;20081;-81
2022/04/13 08:07:50;;;;;;;3.97;1.38;;;;;;;;;;4982636;28;20574;-81
2022/04/13 08:10:16;;;;;;;3.88;1.27;;;;;;;;;;4989209;28;20026;-81
2022/04/13 08:12:46;;;;;;;4.10;1.60;;;;;;;;;;4990312;28;20063;-81
2022/04/13 08:15:13;;;;;;;7.97;1.90;;;;;;;;;;4987324;28;20058;-83
2022/04/13 08:17:39;;;;;;;4.70;1.90;;;;;;;;;;4984581;28;20120;-82
2022/04/13 08:20:06;;;;;;;4.63;1.77;;;;;;;;;;4985782;28;23330;-82
2022/04/13 08:22:32;;;;;;;4.70;2.10;;;;;;;;;;4993798;28;20402;-83
2022/04/13 08:24:58;;;;;;;4.90;1.92;;;;;;;;;;4994621;28;20035;-83
2022/04/13 08:27:24;;;;;;;5.38;1.70;;;;;;;;;;4993175;28;20093;-82
2022/04/13 08:29:50;;;;;;;4.32;1.67;;;;;;;;;;4991365;28;20022;-83
2022/04/13 08:32:17;;;;;;;3.28;1.90;;;;;;;;;;4988864;28;20038;-81
2022/04/13 08:34:43;;;;;;;7.10;2.10;;;;;;;;;;4987428;28;20034;-83
2022/04/13 08:37:10;;;;;;;4.53;1.60;;;;;;;;;;4991922;28;20130;-83
2022/04/13 08:39:36;;;;;;;5.88;1.58;;;;;;;;;;4990295;28;20436;-82
2022/04/13 08:42:12;;;;;;;6.47;2.20;;;;;;;;;;4992220;28;20077;-82
2022/04/13 08:44:48;;;;;;;10.68;2.22;;;;;;;;;;4989353;28;20034;-83
2022/04/13 08:47:15;;;;;;;6.43;2.85;;;;;;;;;;4986778;28;20648;-82
2022/04/13 08:49:44;;;;;;;6.82;1.85;;;;;;;;;;4991054;28;20521;-82
2022/04/13 08:52:10;;;;;;;3.00;1.45;;;;;;;;;;4989859;28;20037;-79
2022/04/13 08:54:49;;;;;;;4.18;1.90;;;;;;;;;;4990871;28;20048;-81
2022/04/13 08:57:19;;;;;;;4.43;1.40;;;;;;;;;;4987573;28;20573;-81
2022/04/13 08:59:51;;;;;;;4.45;1.90;;;;;;;;;;4994047;28;20617;-82
2022/04/13 09:02:35;;;;;;;4.63;2.35;;;26.40;55.10;;;;;;4992953;28;20030;-81
2022/04/13 09:05:01;;;;;;;6.30;1.58;;;;;;;;;;4986425;28;20564;-81
2022/04/13 09:07:31;;;;;;;3.47;1.40;;;27.60;55.20;;;;;;4993453;28;20127;-81
2022/04/13 09:09:59;;;;;;;6.90;1.90;;;;;;;;;;4989487;28;20117;-81
2022/04/13 09:12:30;;;;;;;7.07;2.15;;;;;;;;;;4992131;28;20064;-82
2022/04/13 09:14:57;;;;;;;5.25;1.50;;;;;;;;;;4988430;28;20058;-81
2022/04/13 09:17:23;;;;;;;7.68;2.33;;;;;;;;;;4988091;28;20026;-81
2022/04/13 09:19:49;;;;;;;6.40;2.13;;;;;;;;;;4991913;28;20671;-80
2022/04/13 09:22:16;;;;;;;5.43;2.33;;;;;;;;;;4998031;28;20034;-81
2022/04/13 09:24:42;;;;;;;7.63;1.70;;;;;;;;;;4999718;28;20035;-82
2022/04/13 09:27:09;;;;;;;9.98;2.25;;;;;;;;;;4996209;28;20046;-80
2022/04/13 09:29:37;;;;;;;4.82;1.83;;;;;;;;;;4995674;28;20537;-82
2022/04/13 09:32:03;;;;;;;6.68;2.15;;;;;;;;;;4995258;28;20510;-81
2022/04/13 09:34:29;;;;;;;4.70;2.13;;;;;;;;;;4991424;28;20018;-81
2022/04/13 09:36:56;;;;;;;5.57;2.13;;;;;;;;;;4998948;28;20057;-81
2022/04/13 09:39:22;;;;;;;5.78;2.10;;;;;;;;;;4986888;28;20026;-81
2022/04/13 09:41:51;;;;;;;6.30;2.25;;;;;;;;;;4989317;28;20037;-81
2022/04/13 09:44:18;;;;;;;6.07;2.30;;;;;;;;;;4986976;28;20029;-79
2022/04/13 09:46:44;;;;;;;9.00;2.38;;;;;;;;;;4987380;28;20154;-81
2022/04/13 09:49:14;;;;;;;5.15;2.20;;;;;;;;;;4986851;28;20473;-79
2022/04/13 09:51:41;;;;;;;5.90;1.92;;;;;;;;;;4990770;28;20042;-81
2022/04/13 09:54:08;;;;;;;10.98;2.97;;;;;;;;;;4987740;28;20132;-81
2022/04/13 09:56:36;;;;;;;7.47;3.15;;;;;;;;;;4990233;28;20032;-81
2022/04/13 09:59:02;;;;;;;8.27;3.08;;;;;;;;;;4989382;28;20014;-81
2022/04/13 10:01:28;;;;;;;13.02;2.88;;;;;;;;;;4993998;28;20097;-81
2022/04/13 10:03:58;;;;;;;11.10;2.50;;;;;;;;;;4987603;28;20046;-81
2022/04/13 10:06:30;;;;;;;5.90;2.25;;;;;;;;;;4992603;28;20041;-81
2022/04/13 10:09:09;;;;;;;6.25;2.60;;;;;;;;;;4982887;28;20038;-81
2022/04/13 10:11:35;;;;;;;8.75;2.92;;;;;;;;;;4988351;28;20548;-81
2022/04/13 10:14:02;;;;;;;7.63;3.20;;;;;;;;;;4987561;28;20026;-81
2022/04/13 10:16:31;;;;;;;13.70;3.55;;;;;;;;;;4988790;28;20030;-80
2022/04/13 10:18:58;;;;;;;9.05;3.63;;;23.10;66.60;;;;;;4991098;28;20090;-82
2022/04/13 10:21:40;;;;;;;7.35;2.97;;;;;;;;;;4991394;28;20426;-82
2022/04/13 10:24:06;;;;;;;9.20;2.53;;;;;;;;;;4992427;28;20069;-81
2022/04/13 10:26:32;;;;;;;10.18;4.30;;;;;;;;;;4991197;28;20022;-81
2022/04/13 10:28:58;;;;;;;9.93;2.53;;;;;;;;;;4986635;28;20022;-82
2022/04/13 10:31:24;;;;;;;7.97;3.38;;;;;;;;;;4991127;28;20034;-83
2022/04/13 10:33:52;;;;;;;7.43;2.78;;;;;;;;;;4989211;28;20022;-82
2022/04/13 10:36:18;;;;;;;7.15;3.28;;;;;;;;;;4991396;28;20117;-82
2022/04/13 10:38:45;;;;;;;7.15;3.13;;;;;;;;;;4988199;28;20836;-81
2022/04/13 10:41:20;;;;;;;9.27;4.00;;;;;;;;;;4986567;28;20069;-82
2022/04/13 10:43:51;;;;;;;8.30;3.28;;;;;;;;;;4989854;28;20022;-82
2022/04/13 10:46:19;;;;;;;11.93;3.83;;;;;;;;;;4988025;28;20030;-80
2022/04/13 10:48:45;;;;;;;7.90;3.38;;;;;;;;;;4997744;28;20066;-81
2022/04/13 10:51:22;;;;;;;7.82;3.50;;;24.50;60.90;;;;;;4995783;28;20069;-82
2022/04/13 10:54:00;;;;;;;7.95;2.95;;;;;;;;;;4998080;28;20036;-81
2022/04/13 10:56:32;;;;;;;8.48;3.08;;;;;;;;;;4999043;28;20034;-82
2022/04/13 10:59:16;;;;;;;11.05;3.83;;;;;;;;;;4993911;28;20117;-81
2022/04/13 11:01:46;;;;;;;9.52;3.72;;;;;;;;;;4990635;28;20026;-82
2022/04/13 11:04:13;;;;;;;11.30;3.33;;;;;;;;;;4990758;28;20050;-82
2022/04/13 11:06:43;;;;;;;7.63;3.08;;;;;;;;;;4994534;28;21510;-81
2022/04/13 11:09:13;;;;;;;8.25;3.00;;;;;;;;;;4988074;28;20038;-81
2022/04/13 11:11:40;;;;;;;6.85;3.03;;;;;;;;;;4983095;28;20022;-81
2022/04/13 11:14:24;;;;;;;13.23;3.35;;;24.60;58.60;;;;;;4988654;28;20027;-81
2022/04/13 11:17:06;;;;;;;7.68;3.17;;;;;;;;;;4982213;28;20058;-81
2022/04/13 11:19:32;;;;;;;7.38;2.85;;;;;;;;;;4990082;28;20113;-82
2022/04/13 11:21:58;;;;;;;9.60;2.97;;;;;;;;;;4991367;28;20534;-83
2022/04/13 11:24:42;;;;;;;8.57;3.67;;;24.20;59.40;;;;;;4989490;28;20030;-82
2022/04/13 11:27:09;;;;;;;7.45;2.65;;;;;;;;;;4996891;28;20042;-81
2022/04/13 11:29:37;;;;;;;9.00;2.60;;;;;;;;;;4988725;28;20073;-82
2022/04/13 11:32:05;;;;;;;7.85;2.88;;;;;;;;;;4991581;28;20022;-84
2022/04/13 11:34:31;;;;;;;6.90;3.00;;;;;;;;;;4987191;28;20031;-85
2022/04/13 11:37:01;;;;;;;7.97;2.80;;;;;;;;;;4990219;28;20038;-83
2022/04/13 11:39:45;;;;;;;7.45;2.58;;;;;;;;;;4984542;28;20037;-83
2022/04/13 11:42:42;;;;;;;6.25;2.38;;;;;;;;;;4985802;28;20118;-84
2022/04/13 11:45:12;;;;;;;7.28;2.95;;;;;;;;;;4990854;28;20034;-83
2022/04/13 11:47:44;;;;;;;10.30;3.28;;;;;;;;;;4992894;28;20034;-83
2022/04/13 11:50:13;;;;;;;9.00;3.63;;;;;;;;;;5005770;28;20034;-85
2022/04/13 11:52:52;;;;;;;9.18;2.78;;;;;;;;;;4992953;28;20023;-85
2022/04/13 11:55:22;;;;;;;6.30;2.58;;;;;;;;;;4990293;28;20034;-79
2022/04/13 11:58:13;;;;;;;8.32;2.63;;;;;;;;;;4991248;28;20399;-83
2022/04/13 12:00:47;;;;;;;13.13;4.40;;;;;;;;;;4985423;28;20035;-83
2022/04/13 12:03:13;;;;;;;7.93;3.05;;;;;;;;;;4989285;28;20069;-83
2022/04/13 12:05:59;;;;;;;6.93;3.00;;;23.60;60.90;;;;;;4992681;28;20031;-84
2022/04/13 12:08:35;;;;;;;7.65;2.75;;;;;;;;;;4988591;28;20042;-82
2022/04/13 12:11:09;;;;;;;10.20;3.42;;;;;;;;;;4986839;28;20049;-83
2022/04/13 12:13:45;;;;;;;6.70;3.65;;;;;;;;;;4991777;28;20505;-84
2022/04/13 12:16:15;;;;;;;10.65;3.95;;;;;;;;;;4979115;28;20030;-84
2022/04/13 12:18:41;;;;;;;12.65;4.28;;;;;;;;;;4991149;28;20034;-82
2022/04/13 12:21:09;;;;;;;8.48;3.10;;;;;;;;;;4986246;28;20042;-82
2022/04/13 12:23:37;;;;;;;9.13;3.70;;;;;;;;;;4988669;28;20050;-80
2022/04/13 12:26:03;;;;;;;8.15;3.42;;;;;;;;;;4990258;28;20537;-81
2022/04/13 12:28:29;;;;;;;9.63;3.70;;;;;;;;;;4988948;28;20073;-81
2022/04/13 12:30:56;;;;;;;9.50;3.25;;;;;;;;;;4981119;28;20155;-83
2022/04/13 12:33:23;;;;;;;11.48;3.03;;;;;;;;;;4982423;28;20039;-83
2022/04/13 12:36:05;;;;;;;9.07;3.25;;;;;;;;;;4983513;28;20038;-82
2022/04/13 12:38:32;;;;;;;8.07;2.95;;;;;;;;;;4983511;28;20034;-81
2022/04/13 12:41:01;;;;;;;7.40;3.40;;;;;;;;;;4987465;28;20112;-80
2022/04/13 12:43:27;;;;;;;7.00;3.15;;;;;;;;;;4988759;28;20106;-82
2022/04/13 12:45:54;;;;;;;10.73;4.25;;;;;;;;;;4990170;28;20281;-83
2022/04/13 12:48:26;;;;;;;9.90;3.30;;;;;;;;;;4998430;28;20114;-82
2022/04/13 12:50:59;;;;;;;11.38;3.42;;;;;;;;;;4989160;28;20022;-83
2022/04/13 12:53:25;;;;;;;22.67;8.73;;;;;;;;;;4992296;28;20139;-83
2022/04/13 12:55:52;;;;;;;9.80;3.85;;;;;;;;;;4993951;28;20038;-82
2022/04/13 12:58:18;;;;;;;11.00;4.47;;;;;;;;;;4996573;28;20074;-82
2022/04/13 13:00:51;;;;;;;12.25;3.30;;;;;;;;;;4996991;28;20034;-83
2022/04/13 13:03:18;;;;;;;8.05;3.00;;;;;;;;;;4989832;28;20542;-81
2022/04/13 13:05:44;;;;;;;6.82;2.70;;;;;;;;;;4991897;28;20093;-82
2022/04/13 13:08:10;;;;;;;7.45;3.17;;;;;;;;;;4976727;28;20120;-80
2022/04/13 13:10:36;;;;;;;8.02;2.58;;;;;;;;;;4971782;28;20030;-81
2022/04/13 13:13:16;;;;;;;9.13;2.83;;;;;;;;;;4978917;28;20089;-80
2022/04/13 13:15:42;;;;;;;10.40;3.25;;;;;;;;;;4981758;28;20069;-81
2022/04/13 13:18:08;;;;;;;7.25;2.83;;;;;;;;;;4989153;28;20628;-83
2022/04/13 13:20:35;;;;;;;6.45;2.75;;;;;;;;;;4988424;28;20096;-81
2022/04/13 13:23:09;;;;;;;9.13;3.92;;;;;;;;;;4992983;28;20062;-82
2022/04/13 13:25:41;;;;;;;11.43;2.80;;;;;;;;;;4990784;28;20073;-82
2022/04/13 13:28:07;;;;;;;9.13;2.67;;;;;;;;;;4990992;28;20065;-82
2022/04/13 13:30:40;;;;;;;6.40;2.85;;;;;;;;;;4992525;28;20486;-82
2022/04/13 13:33:06;;;;;;;;;;;;;;;;;;4993328;28;20102;-81
2022/04/13 13:35:32;;;;;;;11.23;2.25;;;;;;;;;;4993416;28;19960;-81
2022/04/13 13:38:08;;;;;;;7.75;2.63;;;;;;;;;;4995225;28;20045;-80
2022/04/13 13:40:37;;;;;;;10.48;3.67;;;;;;;;;;4987442;28;20045;-81
2022/04/13 13:43:06;;;;;;;9.30;3.25;;;;;;;;;;4993371;28;20038;-81
2022/04/13 13:45:34;;;;;;;8.60;3.47;;;;;;;;;;4990824;28;20045;-82
2022/04/13 13:48:01;;;;;;;11.10;2.78;;;24.70;59.40;;;;;;4995959;28;20133;-82
2022/04/13 13:50:30;;;;;;;8.48;3.53;;;;;;;;;;4990543;28;20034;-81
2022/04/13 13:52:56;;;;;;;9.80;3.05;;;;;;;;;;4990508;28;20030;-81
2022/04/13 13:55:27;;;;;;;10.30;4.13;;;;;;;;;;4966635;28;20409;-83
2022/04/13 13:57:53;;;;;;;6.57;2.75;;;;;;;;;;4992867;28;20022;-83
2022/04/13 14:00:20;;;;;;;9.93;3.55;;;;;;;;;;4991631;28;20041;-82
2022/04/13 14:02:52;;;;;;;7.93;2.60;;;;;;;;;;4995562;28;20036;-82
2022/04/13 14:05:18;;;;;;;8.73;2.97;;;;;;;;;;4995546;28;20082;-81
2022/04/13 14:07:44;;;;;;;9.00;3.50;;;;;;;;;;4996643;28;20053;-81
2022/04/13 14:10:10;;;;;;;11.05;4.05;;;;;;;;;;4995531;28;20050;-81
2022/04/13 14:12:36;;;;;;;10.40;3.65;;;;;;;;;;4994798;28;20042;-81
2022/04/13 14:15:02;;;;;;;6.55;2.92;;;;;;;;;;4994532;28;20018;-82
2022/04/13 14:17:29;;;;;;;10.48;3.10;;;;;;;;;;4993681;28;20042;-81
2022/04/13 14:19:55;;;;;;;10.27;3.65;;;;;;;;;;4993896;28;20813;-81
2022/04/13 14:22:21;;;;;;;9.07;3.40;;;;;;;;;;4995550;28;20136;-82
2022/04/13 14:24:47;;;;;;;9.35;3.72;;;;;;;;;;4996752;28;20029;-82
2022/04/13 14:27:13;;;;;;;11.75;3.90;;;;;;;;;;4990165;28;20406;-80
2022/04/13 14:29:39;;;;;;;10.05;3.50;;;;;;;;;;4991559;28;20536;-81
2022/04/13 14:32:06;;;;;;;9.43;3.50;;;;;;;;;;4970593;28;20076;-82
2022/04/13 14:34:32;;;;;;;11.52;3.17;;;;;;;;;;4983330;28;20141;-81
2022/04/13 14:36:57;;;;;;;8.70;3.22;;;;;;;;;;4991826;28;20038;-82
2022/04/13 14:39:24;;;;;;;8.65;3.00;;;;;;;;;;4990212;28;20468;-84
2022/04/13 14:41:50;;;;;;;8.07;3.38;;;;;;;;;;4974385;28;20030;-85